| time (UTC) | temp C | wind direction | speed KPH | gust KPH | rain 1hr cm | rain 24hr cm | rain mn cm | humidity % | barometer mb |
| 20260505002432 | 15 | 60 | 9.7 | 0.0 | 0.03 | 0.58 | 0.03 | 75 | 1016.0 |
| 20260505002050 | 15 | 60 | 9.7 | 0.0 | 0.03 | 0.58 | 0.03 | 75 | 1016.0 |
| 20260505001432 | 15 | 60 | 9.7 | 0.0 | 0.03 | 0.58 | 0.03 | 75 | 1016.0 |
| 20260505001050 | 15 | 60 | 9.7 | 0.0 | 0.03 | 0.58 | 0.03 | 75 | 1016.0 |
| 20260505000050 | 16 | 70 | 9.7 | 0.0 | 0.00 | 0.66 | 0.00 | 75 | 1016.0 |
| 20260504235432 | 16 | 70 | 9.7 | 0.0 | 0.03 | 0.99 | 0.03 | 75 | 1016.0 |
| 20260504235050 | 16 | 70 | 9.7 | 0.0 | 0.03 | 0.99 | 0.03 | 75 | 1016.0 |
| 20260504234432 | 16 | 70 | 9.7 | 0.0 | 0.03 | 0.99 | 0.03 | 75 | 1016.0 |
| 20260504234050 | 16 | 70 | 9.7 | 0.0 | 0.03 | 0.99 | 0.03 | 75 | 1016.0 |
| 20260504233432 | 16 | 70 | 9.7 | 0.0 | 0.03 | 0.99 | 0.03 | 75 | 1016.0 |
| 20260504233050 | 15 | 110 | 4.8 | 6.4 | 0.03 | 0.99 | 0.03 | 72 | 1016.0 |
| 20260504232432 | 15 | 110 | 4.8 | 6.4 | 0.03 | 0.99 | 0.03 | 72 | 1015.0 |
| 20260504232050 | 15 | 110 | 4.8 | 6.4 | 0.03 | 0.99 | 0.03 | 72 | 1015.0 |
| 20260504231050 | 15 | 110 | 4.8 | 6.4 | 0.03 | 0.99 | 0.03 | 72 | 1015.0 |
| 20260504230050 | 15 | 110 | 4.8 | 6.4 | 0.00 | 0.97 | 0.00 | 72 | 1015.0 |
| 20260504225432 | 15 | 110 | 4.8 | 6.4 | 0.08 | 0.94 | 0.08 | 72 | 1015.0 |
| 20260504225050 | 15 | 110 | 4.8 | 6.4 | 0.08 | 0.94 | 0.08 | 72 | 1015.0 |
| 20260504224051 | 17 | 70 | 9.7 | 0.0 | 0.08 | 0.94 | 0.08 | 68 | 1015.0 |
| 20260504223432 | 17 | 70 | 9.7 | 0.0 | 0.08 | 0.97 | 0.08 | 68 | 1015.0 |
| 20260504223050 | 16 | 60 | 16.1 | 0.0 | 0.08 | 0.97 | 0.08 | 72 | 1015.0 |
| 20260504222432 | 16 | 60 | 16.1 | 0.0 | 0.08 | 0.97 | 0.08 | 71 | 1014.0 |
| 20260504222050 | 16 | 60 | 16.1 | 0.0 | 0.08 | 0.97 | 0.08 | 71 | 1014.0 |
| 20260504221432 | 16 | 60 | 16.1 | 0.0 | 0.08 | 0.97 | 0.08 | 71 | 1014.0 |
| 20260504221050 | 16 | 60 | 16.1 | 0.0 | 0.08 | 0.97 | 0.08 | 72 | 1014.0 |
| 20260504220432 | 16 | 60 | 16.1 | 0.0 | 0.00 | 0.89 | 0.00 | 74 | 1014.0 |
| 20260504220050 | 16 | 60 | 16.1 | 0.0 | 0.00 | 0.89 | 0.00 | 74 | 1014.0 |
| 20260504215050 | 16 | 60 | 16.1 | 0.0 | 0.08 | 0.91 | 0.08 | 73 | 1014.0 |
| 20260504214432 | 16 | 60 | 16.1 | 0.0 | 0.08 | 0.91 | 0.08 | 73 | 1014.0 |
| 20260504214050 | 16 | 60 | 16.1 | 0.0 | 0.08 | 0.91 | 0.08 | 73 | 1014.0 |
| 20260504213432 | 16 | 60 | 16.1 | 0.0 | 0.08 | 0.91 | 0.08 | 73 | 1014.0 |
| 20260504213050 | 16 | 60 | 16.1 | 0.0 | 0.08 | 0.91 | 0.08 | 73 | 1014.0 |
| 20260504212431 | 16 | 60 | 16.1 | 0.0 | 0.08 | 0.91 | 0.08 | 72 | 1014.0 |
| 20260504212050 | 16 | 60 | 16.1 | 0.0 | 0.08 | 0.91 | 0.08 | 72 | 1014.0 |
| 20260504211432 | 16 | 60 | 16.1 | 0.0 | 0.08 | 0.91 | 0.08 | 71 | 1014.0 |
| 20260504211050 | 16 | 60 | 16.1 | 0.0 | 0.08 | 0.91 | 0.08 | 70 | 1014.0 |
| 20260504210432 | 16 | 127 | 3.2 | 4.8 | 0.00 | 0.84 | 0.00 | 68 | 1014.0 |
| 20260504210050 | 16 | 127 | 3.2 | 4.8 | 0.00 | 0.84 | 0.00 | 68 | 1014.0 |
| 20260504205432 | 16 | 127 | 3.2 | 4.8 | 0.10 | 0.84 | 0.10 | 68 | 1014.0 |
| 20260504205050 | 16 | 127 | 3.2 | 4.8 | 0.10 | 0.84 | 0.10 | 68 | 1014.0 |
| 20260504204050 | 16 | 127 | 3.2 | 4.8 | 0.10 | 0.84 | 0.10 | 68 | 1014.0 |
| 20260504203432 | 16 | 127 | 3.2 | 4.8 | 0.10 | 0.86 | 0.10 | 68 | 1014.0 |
| 20260504203050 | 16 | 127 | 3.2 | 4.8 | 0.10 | 0.86 | 0.10 | 68 | 1014.0 |
| 20260504202432 | 16 | 127 | 3.2 | 4.8 | 0.10 | 0.86 | 0.10 | 68 | 1014.0 |
| 20260504202050 | 16 | 127 | 3.2 | 4.8 | 0.10 | 0.86 | 0.10 | 68 | 1014.0 |
| 20260504201050 | 16 | 127 | 3.2 | 4.8 | 0.10 | 0.86 | 0.10 | 68 | 1014.0 |
| 20260504200432 | 16 | 127 | 3.2 | 4.8 | 0.00 | 0.79 | 0.00 | 69 | 1014.0 |
| 20260504200050 | 16 | 127 | 3.2 | 4.8 | 0.00 | 0.76 | 0.00 | 70 | 1014.0 |
| 20260504195432 | 16 | 127 | 3.2 | 4.8 | 0.10 | 0.84 | 0.10 | 73 | 1014.0 |
| 20260504195052 | 16 | 127 | 3.2 | 4.8 | 0.10 | 0.84 | 0.10 | 78 | 1014.0 |
| 20260504194432 | 16 | 127 | 3.2 | 4.8 | 0.10 | 0.84 | 0.10 | 78 | 1014.0 |
| 20260504194050 | 16 | 127 | 3.2 | 4.8 | 0.10 | 0.84 | 0.10 | 78 | 1014.0 |
| 20260504193432 | 18 | 127 | 3.2 | 4.8 | 0.10 | 0.89 | 0.10 | 68 | 1014.0 |
| 20260504193050 | 18 | 150 | 19.3 | 0.0 | 0.10 | 0.89 | 0.10 | 68 | 1014.0 |
| 20260504192432 | 18 | 150 | 19.3 | 0.0 | 0.10 | 0.89 | 0.10 | 69 | 1014.0 |
| 20260504192051 | 18 | 150 | 19.3 | 0.0 | 0.10 | 0.89 | 0.10 | 68 | 1014.0 |
| 20260504191432 | 18 | 150 | 19.3 | 0.0 | 0.10 | 0.91 | 0.10 | 68 | 1014.0 |
| 20260504191049 | 18 | 150 | 19.3 | 0.0 | 0.10 | 0.91 | 0.10 | 68 | 1014.0 |
| 20260504190432 | 18 | 150 | 19.3 | 0.0 | 0.00 | 0.79 | 0.00 | 66 | 1014.0 |
| 20260504190050 | 18 | 150 | 19.3 | 0.0 | 0.00 | 0.79 | 0.00 | 66 | 1014.0 |
| 20260504185050 | 18 | 150 | 19.3 | 0.0 | 0.08 | 0.91 | 0.08 | 66 | 1014.0 |
| 20260504184432 | 18 | 150 | 19.3 | 0.0 | 0.08 | 0.84 | 0.08 | 66 | 1014.0 |
| 20260504184049 | 18 | 150 | 19.3 | 0.0 | 0.08 | 0.84 | 0.08 | 66 | 1014.0 |
| 20260504183052 | 18 | 150 | 19.3 | 0.0 | 0.08 | 0.91 | 0.08 | 67 | 1014.0 |
| 20260504182432 | 18 | 150 | 19.3 | 0.0 | 0.08 | 0.91 | 0.08 | 67 | 1014.0 |
| 20260504182050 | 18 | 150 | 19.3 | 0.0 | 0.08 | 0.91 | 0.08 | 67 | 1014.0 |
| 20260504181432 | 18 | 150 | 19.3 | 0.0 | 0.08 | 0.94 | 0.08 | 67 | 1014.0 |
| 20260504181050 | 18 | 150 | 19.3 | 0.0 | 0.08 | 0.91 | 0.08 | 67 | 1014.0 |
| 20260504180050 | 18 | 120 | 12.9 | 0.0 | 0.00 | 0.99 | 0.00 | 67 | 1014.0 |
| 20260504175432 | 18 | 120 | 12.9 | 0.0 | 0.10 | 0.66 | 0.10 | 67 | 1014.0 |
| 20260504175050 | 18 | 120 | 12.9 | 0.0 | 0.10 | 0.64 | 0.10 | 68 | 1014.0 |
| 20260504174432 | 18 | 120 | 12.9 | 0.0 | 0.10 | 0.66 | 0.10 | 69 | 1014.0 |
| 20260504174050 | 18 | 120 | 12.9 | 0.0 | 0.10 | 0.69 | 0.10 | 69 | 1014.0 |
| 20260504173050 | 18 | 120 | 12.9 | 0.0 | 0.10 | 0.74 | 0.10 | 71 | 1014.0 |
| 20260504172432 | 18 | 120 | 12.9 | 0.0 | 0.10 | 0.74 | 0.10 | 71 | 1015.0 |
| 20260504172050 | 18 | 120 | 12.9 | 0.0 | 0.10 | 0.74 | 0.10 | 72 | 1015.0 |
| 20260504171431 | 18 | 120 | 12.9 | 0.0 | 0.10 | 0.74 | 0.10 | 74 | 1015.0 |
| 20260504171050 | 18 | 120 | 12.9 | 0.0 | 0.10 | 0.74 | 0.10 | 74 | 1015.0 |
| 20260504151050 | 18 | 173 | 3.2 | 8.0 | 0.03 | 0.84 | 0.03 | 99 | 1016.0 |
| 20260504150432 | 18 | 173 | 3.2 | 8.0 | 0.00 | 0.84 | 0.00 | 99 | 1016.0 |
| 20260504141050 | 14 | 280 | 8.0 | 0.0 | 0.00 | 0.91 | 0.00 | 99 | 1017.0 |
| 20260504140432 | 14 | 280 | 8.0 | 0.0 | 0.00 | 0.91 | 0.00 | 99 | 1017.0 |
| 20260504130432 | 12 | 280 | 8.0 | 0.0 | 0.00 | 0.99 | 0.00 | 99 | 1018.0 |
| 20260504110432 | 12 | 280 | 8.0 | 0.0 | 0.00 | 1.14 | 0.00 | 99 | 1018.0 |
| 20260504100432 | 12 | 280 | 8.0 | 0.0 | 0.00 | 1.14 | 0.00 | 99 | 1018.0 |
| 20260504081050 | 12 | 280 | 8.0 | 0.0 | 0.00 | 1.09 | 0.00 | 99 | 1018.0 |
| 20260504080432 | 12 | 280 | 8.0 | 0.0 | 0.00 | 1.09 | 0.00 | 99 | 1018.0 |
| 20260504050432 | 12 | 280 | 8.0 | 0.0 | 0.00 | 0.81 | 0.00 | 99 | 1020.0 |
| 20260504045050 | 12 | 280 | 8.0 | 0.0 | 0.00 | 0.81 | 0.00 | 99 | 1020.0 |
| 20260504044432 | 12 | 101 | 6.4 | 4.8 | 0.00 | 0.81 | 0.00 | 99 | 1020.0 |
| 20260504044050 | 12 | 101 | 6.4 | 4.8 | 0.00 | 0.81 | 0.00 | 99 | 1020.0 |
| 20260504043432 | 12 | 101 | 6.4 | 4.8 | 0.00 | 0.81 | 0.00 | 99 | 1020.0 |
| 20260504043050 | 12 | 101 | 6.4 | 4.8 | 0.00 | 0.81 | 0.00 | 99 | 1020.0 |
| 20260504042432 | 12 | 101 | 6.4 | 4.8 | 0.00 | 0.81 | 0.00 | 99 | 1020.0 |
| 20260504042050 | 12 | 101 | 6.4 | 4.8 | 0.00 | 0.81 | 0.00 | 99 | 1020.0 |
| 20260504041432 | 12 | 101 | 6.4 | 4.8 | 0.00 | 0.81 | 0.00 | 99 | 1020.0 |
| 20260504041050 | 12 | 101 | 6.4 | 4.8 | 0.00 | 0.81 | 0.00 | 99 | 1020.0 |
| 20260504040432 | 12 | 101 | 6.4 | 4.8 | 0.00 | 0.81 | 0.00 | 99 | 1020.0 |
| 20260504040050 | 12 | 101 | 6.4 | 4.8 | 0.00 | 0.81 | 0.00 | 99 | 1020.0 |
| 20260504035432 | 13 | 340 | 1.6 | 0.0 | 0.00 | 0.81 | 0.00 | 10 | 1020.0 |
| 20260504035050 | 13 | 340 | 1.6 | 0.0 | 0.00 | 0.81 | 0.00 | 100 | 1020.0 |
| 20260504034431 | 13 | 340 | 1.6 | 0.0 | 0.00 | 0.81 | 0.00 | 10 | 1020.0 |
| 20260504034050 | 13 | 340 | 1.6 | 0.0 | 0.00 | 0.81 | 0.00 | 99 | 1020.0 |
| 20260504033432 | 13 | 340 | 1.6 | 0.0 | 0.00 | 0.81 | 0.00 | 99 | 1020.0 |
| 20260504033050 | 13 | 340 | 1.6 | 0.0 | 0.00 | 0.86 | 0.00 | 99 | 1020.0 |
| 20260504032432 | 13 | 340 | 1.6 | 0.0 | 0.00 | 0.84 | 0.00 | 99 | 1020.0 |
| 20260504031050 | 13 | 340 | 1.6 | 0.0 | 0.00 | 0.84 | 0.00 | 99 | 1020.0 |
| 20260504030432 | 13 | 0 | 3.2 | 0.0 | 0.00 | 0.81 | 0.00 | 99 | 1020.0 |
| 20260504030050 | 13 | 0 | 3.2 | 0.0 | 0.00 | 0.81 | 0.00 | 99 | 1020.0 |
| 20260504025432 | 13 | 0 | 3.2 | 0.0 | 0.00 | 0.81 | 0.00 | 99 | 1020.0 |
| 20260504025050 | 13 | 0 | 3.2 | 0.0 | 0.00 | 0.86 | 0.00 | 99 | 1020.0 |
| 20260504024050 | 13 | 0 | 3.2 | 0.0 | 0.00 | 1.07 | 0.00 | 99 | 1020.0 |
| 20260504023432 | 13 | 0 | 3.2 | 0.0 | 0.00 | 0.81 | 0.00 | 98 | 1020.0 |
| 20260504023050 | 13 | 0 | 3.2 | 0.0 | 0.00 | 0.81 | 0.00 | 98 | 1020.0 |
| 20260504022432 | 13 | 0 | 3.2 | 0.0 | 0.00 | 0.81 | 0.00 | 98 | 1019.0 |
| 20260504022050 | 13 | 0 | 3.2 | 0.0 | 0.00 | 0.81 | 0.00 | 98 | 1019.0 |
| 20260504021050 | 13 | 0 | 3.2 | 0.0 | 0.00 | 1.17 | 0.00 | 98 | 1019.0 |
| 20260504020432 | 13 | 0 | 3.2 | 0.0 | 0.00 | 0.81 | 0.00 | 98 | 1019.0 |
| 20260504020050 | 13 | 0 | 3.2 | 0.0 | 0.00 | 0.81 | 0.00 | 98 | 1019.0 |
| 20260504015431 | 13 | 0 | 3.2 | 0.0 | 0.03 | 0.81 | 0.03 | 98 | 1019.0 |
| 20260504015050 | 13 | 0 | 3.2 | 0.0 | 0.03 | 0.89 | 0.03 | 97 | 1019.0 |
| 20260504014432 | 13 | 0 | 3.2 | 0.0 | 0.03 | 1.14 | 0.03 | 97 | 1019.0 |
| 20260504014050 | 13 | 0 | 3.2 | 0.0 | 0.03 | 1.14 | 0.03 | 97 | 1019.0 |
| 20260504013431 | 13 | 0 | 3.2 | 0.0 | 0.03 | 0.81 | 0.03 | 96 | 1019.0 |
| 20260504013050 | 14 | 124 | 6.4 | 6.4 | 0.03 | 0.81 | 0.03 | 95 | 1019.0 |
| 20260504012432 | 14 | 124 | 6.4 | 6.4 | 0.03 | 0.81 | 0.03 | 95 | 1018.0 |
| 20260504012050 | 14 | 124 | 6.4 | 6.4 | 0.03 | 1.37 | 0.03 | 95 | 1018.0 |
| 20260504011432 | 14 | 124 | 6.4 | 6.4 | 0.03 | 1.68 | 0.03 | 94 | 1018.0 |
| 20260504011050 | 14 | 124 | 6.4 | 6.4 | 0.03 | 1.68 | 0.03 | 94 | 1018.0 |
| 20260504010432 | 14 | 124 | 6.4 | 6.4 | 0.00 | 0.97 | 0.00 | 94 | 1018.0 |
| 20260504010050 | 14 | 124 | 6.4 | 6.4 | 0.00 | 0.81 | 0.00 | 93 | 1018.0 |
| 20260504005432 | 14 | 124 | 6.4 | 6.4 | 0.03 | 0.84 | 0.03 | 93 | 1018.0 |
| 20260504005051 | 14 | 124 | 6.4 | 6.4 | 0.03 | 0.84 | 0.03 | 93 | 1018.0 |
| 20260504004432 | 14 | 124 | 6.4 | 6.4 | 0.03 | 0.84 | 0.03 | 93 | 1018.0 |
| 20260504004050 | 14 | 124 | 6.4 | 6.4 | 0.03 | 0.84 | 0.03 | 93 | 1018.0 |
| 20260504003432 | 14 | 124 | 6.4 | 6.4 | 0.03 | 0.84 | 0.03 | 93 | 1018.0 |
| 20260504003050 | 14 | 124 | 6.4 | 6.4 | 0.03 | 0.84 | 0.03 | 93 | 1018.0 |